Time;durP1;ratioP1;P1;durP2;ratioP2;P2;SDS_P1;SDS_P2;PMS_P1;PMS_P2;Temp;Humidity;BMP_temperature;BMP_pressure;BME280_temperature;BME280_humidity;BME280_pressure;Samples;Min_cycle;Max_cycle;Signal;HPM_P1;HPM_P2
2023/08/17 00:00:48;;;;;;;;;8.75;7.75;;;;;25.70;47.01;99158.28;5076868;28;45293;-64
2023/08/17 00:03:14;;;;;;;;;10.00;8.00;;;;;25.70;47.14;99152.03;5076593;28;46481;-64
2023/08/17 00:05:39;;;;;;;;;8.25;8.25;;;;;25.69;47.36;99151.16;5076462;28;45479;-64
2023/08/17 00:08:05;;;;;;;;;10.25;8.25;;;;;25.69;46.95;99144.94;5077083;28;45436;-64
2023/08/17 00:10:30;;;;;;;;;7.25;7.25;;;;;25.67;46.84;99144.22;5076810;28;45593;-64
2023/08/17 00:12:56;;;;;;;;;8.25;7.50;;;;;25.67;47.08;99144.22;5076541;28;46568;-65
2023/08/17 00:15:22;;;;;;;;;8.50;8.25;;;;;25.65;47.03;99138.97;5076735;28;45438;-64
2023/08/17 00:17:47;;;;;;;;;8.00;8.00;;;;;25.64;46.68;99147.22;5076797;28;46070;-64
2023/08/17 00:20:12;;;;;;;;;8.50;8.50;;;;;25.63;46.25;99137.47;5077080;28;45357;-64
2023/08/17 00:22:38;;;;;;;;;8.25;8.25;;;;;25.59;46.28;99142.28;5076796;28;46355;-64
2023/08/17 00:25:04;;;;;;;;;9.50;8.50;;;;;25.57;46.32;99143.44;5075275;28;45377;-64
2023/08/17 00:27:32;;;;;;;;;11.00;9.00;;;;;25.56;46.70;99142.59;5076835;28;45472;-64
2023/08/17 00:29:57;;;;;;;;;9.00;9.00;;;;;25.57;46.35;99151.56;5092714;27;45553;-64
2023/08/17 00:32:23;;;;;;;;;11.50;9.00;;;;;25.55;46.73;99150.84;5075854;28;45407;-64
2023/08/17 00:34:48;;;;;;;;;9.50;9.50;;;;;25.51;46.51;99138.66;5076580;28;45316;-64
2023/08/17 00:37:14;;;;;;;;;9.75;9.25;;;;;25.49;46.57;99135.25;5076563;28;45479;-64
2023/08/17 00:39:39;;;;;;;;;9.00;8.00;;;;;25.46;46.92;99136.44;5075185;28;45403;-64
2023/08/17 00:42:04;;;;;;;;;10.00;10.00;;;;;25.44;47.07;99141.16;5074759;28;47067;-64
2023/08/17 00:44:30;;;;;;;;;9.75;9.00;;;;;25.38;47.65;99139.91;5076213;28;45360;-64
2023/08/17 00:46:56;;;;;;;;;8.00;8.00;;;;;25.31;47.19;99148.75;5075966;28;45527;-64
2023/08/17 00:49:22;;;;;;;;;8.25;7.25;;;;;25.23;47.02;99146.84;5075838;28;45449;-65
2023/08/17 00:51:48;;;;;;;;;8.75;8.00;;;;;25.15;47.43;99151.31;5076013;28;46523;-64
2023/08/17 00:54:15;;;;;;;;;7.60;7.60;;;;;25.08;47.81;99143.00;5075595;28;45459;-64
2023/08/17 00:56:40;;;;;;;;;7.50;7.50;;;;;25.00;46.58;99146.44;5076009;28;45390;-64
2023/08/17 00:59:06;;;;;;;;;10.75;9.00;;;;;24.92;48.03;99150.88;5092192;27;45420;-64
2023/08/17 01:01:31;;;;;;;;;8.25;8.25;;;;;24.83;47.76;99157.16;5076075;28;46641;-64
2023/08/17 01:03:57;;;;;;;;;8.00;6.75;;;;;24.74;48.08;99156.25;5076241;28;45357;-64
2023/08/17 01:06:22;;;;;;;;;9.00;8.25;;;;;24.68;48.26;99156.81;5076237;28;45405;-64
2023/08/17 01:08:48;;;;;;;;;6.25;6.25;;;;;24.63;47.62;99159.97;5076086;28;45340;-64
2023/08/17 01:11:36;;;;;;;;;10.25;9.00;;;;;24.59;47.45;99155.03;5076106;27;46746;-64
2023/08/17 01:14:09;;;;;;;;;7.00;7.00;;;;;24.57;47.73;99146.25;5074272;28;45518;-64
2023/08/17 01:16:47;;;;;;;;;6.25;6.25;;;;;24.58;47.61;99147.94;5075690;28;45391;-64
2023/08/17 01:19:24;;;;;;;;;8.00;8.00;;;;;24.61;47.53;99142.25;5075814;28;45616;-64
2023/08/17 01:21:53;;;;;;;;;8.25;7.75;;;;;24.63;47.61;99143.78;5075320;28;45491;-64
2023/08/17 01:24:18;;;;;;;;;8.00;8.00;;;;;24.64;47.56;99148.19;5075819;28;45537;-64
2023/08/17 01:26:44;;;;;;;;;7.75;7.00;;;;;24.68;47.31;99148.75;5075943;28;45480;-64
2023/08/17 01:29:09;;;;;;;;;8.00;8.00;;;;;24.72;47.72;99163.63;5075882;28;45438;-64
2023/08/17 01:31:52;;;;;;;;;8.50;8.50;;;;;24.76;47.76;99161.47;5075582;28;45426;-64
2023/08/17 01:34:23;;;;;;;;;10.00;9.60;;;;;24.75;48.08;99162.47;5075291;28;45462;-64
2023/08/17 01:36:55;;;;;;;;;9.75;9.25;;;;;24.65;49.02;99176.00;5075998;28;45336;-64
2023/08/17 01:39:27;;;;;;;;;10.50;10.50;;;;;24.55;49.53;99172.50;5075786;28;45752;-64
2023/08/17 01:41:56;;;;;;;;;10.25;10.25;;;;;24.44;50.00;99170.84;5075603;28;45669;-64
2023/08/17 01:44:22;;;;;;;;;6.60;6.60;;;;;24.32;49.64;99172.00;5075662;28;45504;-64
2023/08/17 01:46:48;;;;;;;;;8.00;8.00;;;;;24.23;49.75;99172.88;5075058;28;45562;-64
2023/08/17 01:49:14;;;;;;;;;8.00;7.25;;;;;24.15;49.81;99172.75;5075494;28;45380;-64
2023/08/17 01:51:39;;;;;;;;;9.00;9.00;;;;;24.09;50.46;99168.81;5074947;28;45636;-64
2023/08/17 01:54:05;;;;;;;;;9.00;8.75;;;;;24.05;50.54;99170.09;5075226;28;45434;-64
2023/08/17 01:56:30;;;;;;;;;8.50;8.00;;;;;24.04;50.46;99159.47;5075251;28;45381;-64
2023/08/17 01:58:55;;;;;;;;;7.50;7.50;;;;;24.05;50.92;99161.16;5075583;28;45615;-64
2023/08/17 02:01:21;;;;;;;;;9.00;8.25;;;;;24.05;51.26;99155.78;5074827;28;45498;-64
2023/08/17 02:03:46;;;;;;;;;10.00;8.50;;;;;24.07;51.31;99161.88;5075066;28;45310;-64
2023/08/17 02:06:11;;;;;;;;;8.00;8.00;;;;;24.10;51.41;99180.44;5073668;28;45362;-64
2023/08/17 02:08:38;;;;;;;;;8.25;8.25;;;;;24.14;51.68;99181.81;5074851;28;45348;-64
2023/08/17 02:11:03;;;;;;;;;10.75;10.75;;;;;24.18;52.38;99172.47;5074776;28;45446;-64
2023/08/17 02:13:29;;;;;;;;;8.50;6.00;;;;;24.16;52.64;99160.97;5074729;28;45365;-65
2023/08/17 02:15:54;;;;;;;;;7.25;7.25;;;;;24.11;52.72;99166.81;5075048;28;45463;-64
2023/08/17 02:18:19;;;;;;;;;7.75;7.75;;;;;24.08;51.86;99167.13;5074248;28;45495;-64
2023/08/17 02:20:45;;;;;;;;;11.50;8.25;;;;;24.04;53.83;99171.09;5074299;28;45563;-64
2023/08/17 02:23:11;;;;;;;;;11.00;11.00;;;;;24.00;54.36;99166.97;5074667;28;45385;-64
2023/08/17 02:25:39;;;;;;;;;6.00;6.00;;;;;23.93;54.38;99160.50;5074526;28;45582;-64
2023/08/17 02:28:05;;;;;;;;;11.00;9.25;;;;;23.85;54.74;99174.66;5074549;28;45456;-64
2023/08/17 02:30:31;;;;;;;;;9.75;8.75;;;;;23.80;55.26;99176.06;5089874;27;45416;-64
2023/08/17 02:32:57;;;;;;;;;9.75;9.75;;;;;23.76;55.19;99170.16;5073716;28;45323;-64
2023/08/17 02:35:22;;;;;;;;;8.00;8.00;;;;;23.73;55.46;99158.81;5074273;28;45334;-64
2023/08/17 02:37:48;;;;;;;;;35.00;30.00;;;;;23.73;54.65;99153.44;5072960;28;46018;-64
2023/08/17 02:40:13;;;;;;;;;13.00;13.00;;;;;23.78;54.63;99153.88;5073555;27;45668;-64
2023/08/17 02:42:39;;;;;;;;;10.25;9.75;;;;;23.78;55.20;99145.78;5074006;28;45480;-64
2023/08/17 02:45:06;;;;;;;;;11.00;10.75;;;;;23.74;55.12;99149.75;5073997;28;45431;-64
2023/08/17 02:47:32;;;;;;;;;19.25;18.00;;;;;23.73;55.13;99148.06;5073255;28;45514;-64
2023/08/17 02:49:57;;;;;;;;;28.67;28.67;;;;;23.74;55.93;99147.91;5072777;28;47676;-64
2023/08/17 02:52:23;;;;;;;;;12.25;11.75;;;;;23.77;56.07;99147.63;5074298;28;45527;-64
2023/08/17 02:54:48;;;;;;;;;28.00;22.50;;;;;23.75;57.15;99151.44;5074233;28;45437;-64
2023/08/17 02:57:14;;;;;;;;;13.50;13.25;;;;;23.65;57.65;99146.06;5074088;28;45396;-64
2023/08/17 02:59:39;;;;;;;;;12.25;9.00;;;;;23.55;57.56;99153.31;5074103;28;45510;-64
2023/08/17 03:02:04;;;;;;;;;8.75;8.75;;;;;23.46;55.72;99151.47;5073943;28;45387;-64
2023/08/17 03:04:30;;;;;;;;;7.50;7.50;;;;;23.41;55.62;99159.09;5077185;28;46087;-64
2023/08/17 03:06:55;;;;;;;;;9.00;8.00;;;;;23.41;55.87;99151.03;5077359;28;45525;-64
2023/08/17 03:09:20;;;;;;;;;9.50;9.25;;;;;23.45;57.19;99147.06;5077161;27;46335;-64
2023/08/17 03:11:46;;;;;;;;;10.00;9.00;;;;;23.48;56.38;99150.28;5077491;28;45347;-64
2023/08/17 03:14:11;;;;;;;;;10.75;10.75;;;;;23.51;57.08;99155.44;5077969;28;45337;-64
2023/08/17 03:16:36;;;;;;;;;10.25;8.75;;;;;23.56;56.80;99155.00;5077223;28;45560;-64
2023/08/17 03:19:03;;;;;;;;;10.50;10.00;;;;;23.61;55.60;99148.22;5077651;28;45813;-64
2023/08/17 03:21:29;;;;;;;;;13.00;10.00;;;;;23.66;55.89;99154.00;5077099;28;45423;-64
2023/08/17 03:23:54;;;;;;;;;11.25;9.00;;;;;23.71;56.23;99147.34;5077722;28;45533;-64
2023/08/17 03:26:19;;;;;;;;;10.00;10.00;;;;;23.78;56.51;99151.16;5077510;28;45416;-65
2023/08/17 03:28:45;;;;;;;;;10.00;9.75;;;;;23.81;55.05;99143.63;5077705;28;45386;-64
2023/08/17 03:31:10;;;;;;;;;8.50;7.75;;;;;23.85;54.37;99150.44;5077181;28;45363;-64
2023/08/17 03:33:36;;;;;;;;;11.00;11.00;;;;;23.90;54.55;99148.16;5077245;28;45742;-64
2023/08/17 03:36:04;;;;;;;;;12.25;10.00;;;;;23.95;54.15;99136.97;5077308;28;45461;-64
2023/08/17 03:38:30;;;;;;;;;9.75;9.50;;;;;24.00;54.61;99150.81;5077282;27;45409;-64
2023/08/17 03:40:55;;;;;;;;;9.00;9.00;;;;;24.04;53.65;99152.22;5077285;28;45363;-64
2023/08/17 03:43:20;;;;;;;;;10.00;10.00;;;;;24.09;53.91;99155.34;5077313;28;45581;-64
2023/08/17 03:45:46;;;;;;;;;9.50;7.50;;;;;24.12;54.23;99149.66;5074893;28;45810;-64
2023/08/17 03:48:12;;;;;;;;;11.25;10.50;;;;;24.17;54.45;99152.75;5075669;28;46401;-64
2023/08/17 03:50:37;;;;;;;;;12.20;11.00;;;;;24.21;54.38;99164.09;5076772;28;45468;-64
2023/08/17 03:53:03;;;;;;;;;9.50;9.50;;;;;24.24;54.17;99144.97;5075910;28;45401;-64
2023/08/17 03:55:28;;;;;;;;;10.50;10.00;;;;;24.26;54.27;99151.06;5076443;28;45397;-64
2023/08/17 03:57:54;;;;;;;;;8.75;8.75;;;;;24.28;53.81;99157.16;5076230;28;45431;-64
2023/08/17 04:00:19;;;;;;;;;3.75;3.75;;;;;24.28;53.68;99159.88;5076459;28;45611;-64
2023/08/17 04:02:44;;;;;;;;;8.00;8.00;;;;;24.27;52.94;99168.94;5075993;28;45428;-64
2023/08/17 04:05:10;;;;;;;;;8.50;8.50;;;;;24.26;53.60;99175.31;5077082;28;45452;-64
2023/08/17 04:07:36;;;;;;;;;10.00;9.50;;;;;24.28;53.22;99174.19;5076551;28;45558;-64
2023/08/17 04:10:02;;;;;;;;;9.80;9.80;;;;;24.29;52.78;99177.72;5076962;28;45407;-64
2023/08/17 04:12:28;;;;;;;;;11.25;7.75;;;;;24.31;52.52;99176.56;5077125;28;45407;-64
2023/08/17 04:14:53;;;;;;;;;10.25;9.00;;;;;24.32;52.97;99170.19;5076539;28;45356;-64
2023/08/17 04:17:20;;;;;;;;;11.75;10.25;;;;;24.32;53.35;99162.09;5076432;28;45463;-64
2023/08/17 04:19:46;;;;;;;;;9.60;9.60;;;;;24.34;53.07;99164.63;5076284;28;45310;-64
2023/08/17 04:22:11;;;;;;;;;11.00;9.00;;;;;24.38;52.85;99154.41;5076762;28;45618;-64
2023/08/17 04:24:37;;;;;;;;;11.00;10.00;;;;;24.39;53.47;99167.75;5091938;27;45393;-64
2023/08/17 04:27:03;;;;;;;;;12.25;10.25;;;;;24.40;53.54;99174.84;5074234;28;47435;-64
2023/08/17 04:29:30;;;;;;;;;8.50;7.00;;;;;24.43;53.35;99173.69;5075047;28;45460;-64
2023/08/17 04:31:55;;;;;;;;;5.25;3.75;;;;;24.44;52.63;99183.50;5075641;28;45463;-63
2023/08/17 04:34:21;;;;;;;;;10.50;8.50;;;;;24.42;52.92;99188.16;5075929;28;45637;-65
2023/08/17 04:36:46;;;;;;;;;11.25;10.00;;;;;24.40;53.01;99193.72;5074976;28;46886;-64
2023/08/17 04:39:11;;;;;;;;;11.75;11.25;;;;;24.37;53.00;99203.91;5076463;28;45458;-63
2023/08/17 04:41:37;;;;;;;;;13.25;11.00;;;;;24.24;53.07;99206.94;5075094;28;45787;-64
2023/08/17 04:44:03;;;;;;;;;11.00;11.00;;;;;24.08;54.20;99214.75;5076529;28;45431;-64
2023/08/17 04:46:28;;;;;;;;;9.00;9.00;;;;;23.90;53.93;99218.19;5075472;28;46385;-64
2023/08/17 04:48:53;;;;;;;;;10.00;8.50;;;;;23.77;53.97;99209.56;5074769;28;45534;-64
2023/08/17 04:51:19;;;;;;;;;9.00;8.25;;;;;23.73;53.90;99212.66;5076385;28;45868;-63
2023/08/17 04:53:44;;;;;;;;;10.25;10.00;;;;;23.69;53.10;99220.16;5076024;28;45500;-64
2023/08/17 04:56:09;;;;;;;;;11.00;8.25;;;;;23.67;54.18;99225.69;5074156;28;46938;-64
2023/08/17 04:58:35;;;;;;;;;11.50;9.00;;;;;23.69;53.43;99235.47;5075746;28;45372;-64
2023/08/17 05:01:00;;;;;;;;;12.25;11.25;;;;;23.71;53.71;99244.25;5075740;28;45350;-64
2023/08/17 05:03:25;;;;;;;;;9.75;9.75;;;;;23.74;53.87;99243.97;5075683;28;45330;-63
2023/08/17 05:05:54;;;;;;;;;12.25;11.25;;;;;23.78;54.62;99254.34;5075808;28;46330;-63
2023/08/17 05:08:21;;;;;;;;;11.00;11.00;;;;;23.80;55.63;99268.47;5091368;27;45630;-63
2023/08/17 05:10:47;;;;;;;;;9.75;9.00;;;;;23.83;55.35;99278.13;5075924;28;45518;-63
2023/08/17 05:13:12;;;;;;;;;10.25;9.75;;;;;23.86;56.12;99291.31;5075502;28;45478;-63
2023/08/17 05:15:38;;;;;;;;;11.25;11.00;;;;;23.89;55.50;99307.19;5075119;28;46331;-63
2023/08/17 05:18:04;;;;;;;;;10.00;9.00;;;;;23.84;55.35;99302.22;5073503;28;45561;-63
2023/08/17 05:20:29;;;;;;;;;13.50;13.50;;;;;23.70;56.01;99304.47;5075474;28;45452;-64
2023/08/17 05:22:55;;;;;;;;;10.50;9.25;;;;;23.52;56.36;99304.31;5075311;28;45501;-63
2023/08/17 05:25:20;;;;;;;;;9.25;6.50;;;;;23.39;56.25;99299.16;5072925;28;46882;-63
2023/08/17 05:27:45;;;;;;;;;11.50;9.50;;;;;23.34;56.59;99287.94;5075052;28;45455;-64
2023/08/17 05:30:11;;;;;;;;;11.75;10.75;;;;;23.32;56.44;99274.63;5075224;28;45929;-64
2023/08/17 05:32:36;;;;;;;;;10.00;9.25;;;;;23.30;57.14;99267.69;5074653;28;45293;-64
2023/08/17 05:35:02;;;;;;;;;11.75;10.25;;;;;23.27;56.68;99274.22;5074691;28;45813;-64
2023/08/17 05:37:27;;;;;;;;;13.00;13.00;;;;;23.28;58.29;99291.22;5075108;28;45359;-63
2023/08/17 05:39:52;;;;;;;;;20.00;12.75;;;;;23.29;59.47;99276.78;5074871;28;45458;-64
2023/08/17 05:42:18;;;;;;;;;13.00;11.25;;;;;23.32;59.34;99269.25;5074741;28;45271;-64
2023/08/17 05:44:44;;;;;;;;;15.00;14.00;;;;;23.36;59.53;99275.22;5074541;28;46181;-63
2023/08/17 05:47:09;;;;;;;;;12.60;11.00;;;;;23.40;59.81;99286.56;5074504;28;45522;-63
2023/08/17 05:49:35;;;;;;;;;14.50;13.50;;;;;23.44;59.26;99296.06;5074319;28;45475;-64
2023/08/17 05:52:00;;;;;;;;;11.50;10.50;;;;;23.46;59.09;99302.97;5074692;28;45476;-63
2023/08/17 05:54:26;;;;;;;;;12.00;11.50;;;;;23.49;59.03;99275.78;5074332;28;45443;-64
2023/08/17 05:56:51;;;;;;;;;9.25;9.25;;;;;23.52;57.49;99278.25;5074324;28;45399;-64
2023/08/17 05:59:16;;;;;;;;;12.75;11.50;;;;;23.56;58.10;99289.59;5074804;28;45427;-64
2023/08/17 06:01:43;;;;;;;;;13.50;10.25;;;;;23.59;58.45;99311.69;5074260;28;45650;-64
2023/08/17 06:04:08;;;;;;;;;11.75;11.75;;;;;23.64;58.61;99311.25;5073211;28;47477;-67
2023/08/17 06:06:34;;;;;;;;;12.00;11.00;;;;;23.70;58.65;99308.03;5072480;28;45501;-64
2023/08/17 06:08:59;;;;;;;;;17.50;13.00;;;;;23.79;58.20;99307.19;5074248;28;45391;-64
2023/08/17 06:11:25;;;;;;;;;12.00;10.00;;;;;23.88;58.16;99306.34;5074449;28;45373;-64
2023/08/17 06:13:50;;;;;;;;;13.00;12.00;;;;;23.97;58.41;99291.16;5073627;28;45342;-64
2023/08/17 06:16:16;;;;;;;;;12.50;10.75;;;;;24.06;58.00;99276.84;5072751;28;45384;-64
2023/08/17 06:18:41;;;;;;;;;11.50;11.50;;;;;24.11;58.51;99279.97;5089086;27;45472;-64
2023/08/17 06:21:07;;;;;;;;;15.00;12.25;;;;;24.17;57.97;99279.38;5073149;28;45322;-64
2023/08/17 06:23:33;;;;;;;;;13.75;13.75;;;;;24.23;57.92;99275.25;5073275;28;45576;-64
2023/08/17 06:25:59;;;;;;;;;11.00;10.20;;;;;24.26;57.44;99285.78;5071411;28;45456;-63
2023/08/17 06:28:26;;;;;;;;;14.25;14.00;;;;;24.32;57.02;99293.28;5073603;28;45395;-65
2023/08/17 06:30:53;;;;;;;;;11.25;11.25;;;;;24.35;57.05;99299.25;5073225;28;45609;-64
2023/08/17 06:33:18;;;;;;;;;11.75;11.00;;;;;24.41;57.28;99295.13;5072407;28;45529;-64
2023/08/17 06:35:44;;;;;;;;;13.75;12.50;;;;;24.47;56.99;99293.69;5072854;28;45445;-65
2023/08/17 06:38:09;;;;;;;;;11.75;11.50;;;;;24.52;56.78;99296.78;5072954;28;45396;-65
2023/08/17 06:40:34;;;;;;;;;13.00;10.75;;;;;24.54;56.51;99287.56;5073221;28;45545;-64
2023/08/17 06:43:00;;;;;;;;;12.25;12.00;;;;;24.57;56.38;99286.44;5073316;28;45426;-65
2023/08/17 06:45:25;;;;;;;;;14.75;12.75;;;;;24.60;56.30;99283.44;5071572;28;45579;-65
2023/08/17 06:47:50;;;;;;;;;11.00;11.00;;;;;24.66;55.66;99285.53;5072506;28;45502;-64
2023/08/17 06:50:16;;;;;;;;;13.25;12.00;;;;;24.72;55.56;99284.13;5072700;28;45456;-64
2023/08/17 06:52:41;;;;;;;;;12.50;12.00;;;;;24.77;55.44;99295.31;5073071;28;46478;-64
2023/08/17 06:55:07;;;;;;;;;15.00;13.75;;;;;24.85;54.95;99290.88;5073506;28;45417;-64
2023/08/17 06:57:32;;;;;;;;;13.50;13.50;;;;;24.90;55.19;99280.50;5071918;28;45392;-65
2023/08/17 06:59:58;;;;;;;;;13.50;13.50;;;;;25.00;54.95;99277.78;5073561;28;45382;-65
2023/08/17 07:02:23;;;;;;;;;10.75;10.25;;;;;25.10;54.72;99286.69;5073040;28;46295;-65
2023/08/17 07:04:49;;;;;;;;;14.25;13.00;;;;;25.18;54.62;99283.22;5073180;28;45344;-65
2023/08/17 07:07:14;;;;;;;;;13.50;11.50;;;;;25.28;54.09;99287.59;5073270;28;45448;-65
2023/08/17 07:09:40;;;;;;;;;12.25;12.25;;;;;25.36;53.54;99279.56;5072967;27;45565;-65
2023/08/17 07:12:06;;;;;;;;;12.25;11.00;;;;;25.44;53.33;99286.94;5073072;28;46261;-65
2023/08/17 07:14:31;;;;;;;;;10.50;10.50;;;;;25.51;52.90;99281.75;5073023;28;45431;-65
2023/08/17 07:16:56;;;;;;;;;11.00;10.00;;;;;25.58;52.71;99282.84;5072903;28;45385;-65
2023/08/17 07:19:22;;;;;;;;;11.50;10.25;;;;;25.66;51.84;99282.94;5073354;28;45571;-65
2023/08/17 07:21:47;;;;;;;;;11.00;9.75;;;;;25.70;52.02;99265.44;5072678;28;46427;-65
2023/08/17 07:24:14;;;;;;;;;13.50;11.00;;;;;25.76;51.60;99250.50;5072663;28;45419;-65
2023/08/17 07:26:40;;;;;;;;;16.00;12.25;;;;;25.76;51.75;99239.69;5073021;28;45410;-65
2023/08/17 07:29:05;;;;;;;;;13.25;12.00;;;;;25.78;51.64;99254.75;5072685;28;45468;-65
2023/08/17 07:31:33;;;;;;;;;13.00;12.00;;;;;25.80;51.23;99249.19;5072336;28;45613;-65
2023/08/17 07:33:59;;;;;;;;;11.80;11.80;;;;;25.83;50.93;99249.69;5072208;28;45384;-65
2023/08/17 07:36:24;;;;;;;;;12.00;12.00;;;;;25.85;50.44;99245.00;5072691;28;45342;-64
2023/08/17 07:38:49;;;;;;;;;11.00;11.00;;;;;25.86;50.50;99249.41;5088576;27;45425;-64
2023/08/17 07:41:15;;;;;;;;;10.50;10.50;;;;;25.88;50.66;99247.38;5071162;28;47107;-65
2023/08/17 07:43:41;;;;;;;;;11.50;10.25;;;;;25.92;50.32;99246.09;5072273;28;45540;-65
2023/08/17 07:46:06;;;;;;;;;11.50;11.50;;;;;25.96;50.55;99243.91;5071608;28;45499;-66
2023/08/17 07:48:33;;;;;;;;;11.00;10.00;;;;;26.01;50.18;99233.47;5070760;28;45565;-65
2023/08/17 07:50:59;;;;;;;;;10.25;10.25;;;;;26.06;49.94;99240.13;5076078;28;46211;-65
2023/08/17 07:53:24;;;;;;;;;10.25;10.25;;;;;26.08;49.38;99230.00;5075802;28;45398;-64
2023/08/17 07:55:50;;;;;;;;;10.50;8.00;;;;;26.13;49.54;99221.44;5075682;28;45366;-65
2023/08/17 07:58:15;;;;;;;;;13.50;11.75;;;;;26.17;49.16;99232.75;5076270;28;45388;-65
2023/08/17 08:00:40;;;;;;;;;13.50;13.00;;;;;26.18;48.94;99227.19;5075845;28;46240;-64
2023/08/17 08:03:06;;;;;;;;;12.00;11.25;;;;;26.22;49.25;99230.44;5074739;28;45380;-64
2023/08/17 08:05:31;;;;;;;;;11.50;11.50;;;;;26.26;48.98;99216.44;5075620;28;45494;-65
2023/08/17 08:07:57;;;;;;;;;9.75;9.25;;;;;26.30;49.08;99217.00;5075044;28;45669;-64
2023/08/17 08:10:22;;;;;;;;;13.75;13.00;;;;;26.34;48.97;99213.81;5075440;28;45497;-66
2023/08/17 08:12:48;;;;;;;;;12.50;12.25;;;;;26.41;48.72;99219.44;5075468;28;45361;-64
2023/08/17 08:15:13;;;;;;;;;11.75;8.50;;;;;26.46;48.72;99219.81;5073905;28;45394;-64
2023/08/17 08:17:38;;;;;;;;;13.50;11.25;;;;;26.52;48.48;99221.88;5074891;28;45595;-64
2023/08/17 08:20:04;;;;;;;;;12.25;11.25;;;;;26.58;48.71;99221.22;5075315;28;46227;-64
2023/08/17 08:22:30;;;;;;;;;11.60;10.80;;;;;26.66;48.29;99221.25;5075647;28;45401;-63
2023/08/17 08:24:55;;;;;;;;;12.75;12.75;;;;;26.74;48.27;99225.88;5075376;28;45573;-64
2023/08/17 08:27:21;;;;;;;;;10.50;10.50;;;;;26.80;48.63;99221.69;5074849;28;45455;-64
2023/08/17 08:29:46;;;;;;;;;11.75;11.75;;;;;26.86;49.11;99232.69;5075102;28;45606;-64
2023/08/17 08:32:12;;;;;;;;;16.00;13.00;;;;;26.88;49.28;99219.00;5074786;28;45396;-64
2023/08/17 08:34:37;;;;;;;;;0.00;0.00;;;;;26.93;48.86;99219.38;5074896;27;45451;-63
2023/08/17 08:37:03;;;;;;;;;13.00;13.00;;;;;26.96;48.07;99211.81;5074824;28;45425;-63
2023/08/17 08:39:28;;;;;;;;;15.00;14.25;;;;;27.02;47.88;99204.88;5075271;28;45554;-63
2023/08/17 08:41:54;;;;;;;;;12.75;11.00;;;;;27.10;47.16;99208.47;5075211;28;45421;-64
2023/08/17 08:44:19;;;;;;;;;12.50;12.50;;;;;27.19;47.04;99211.19;5075072;28;45418;-64
2023/08/17 08:46:46;;;;;;;;;13.75;13.25;;;;;27.25;47.37;99214.09;5074660;27;45358;-64
2023/08/17 08:49:12;;;;;;;;;13.25;12.75;;;;;27.30;47.61;99219.88;5075394;28;46420;-64
2023/08/17 08:51:46;;;;;;;;;12.20;11.80;;;;;27.35;48.03;99211.22;5075326;28;45363;-63
2023/08/17 08:54:21;;;;;;;;;12.50;12.25;;;;;27.38;47.99;99202.78;5075231;27;45341;-64
2023/08/17 08:56:53;;;;;;;;;13.50;13.00;;;;;27.39;47.85;99201.75;5073197;28;45481;-63
2023/08/17 08:59:20;;;;;;;;;11.50;10.75;;;;;27.40;47.75;99198.03;5074815;28;45392;-63
2023/08/17 09:01:47;;;;;;;;;13.60;13.20;;;;;27.44;47.23;99194.00;5072933;28;45304;-63
2023/08/17 09:04:12;;;;;;;;;14.50;14.00;;;;;27.48;47.52;99181.81;5075056;28;45334;-63
2023/08/17 09:06:39;;;;;;;;;13.50;11.25;;;;;27.55;47.10;99184.69;5074524;28;45399;-64
2023/08/17 09:09:06;;;;;;;;;13.50;13.50;;;;;27.61;47.16;99182.19;5073045;28;48099;-64
2023/08/17 09:11:32;;;;;;;;;15.60;14.00;;;;;27.68;46.88;99185.91;5090369;27;45433;-64
2023/08/17 09:13:57;;;;;;;;;16.50;14.00;;;;;27.75;47.23;99180.69;5074206;28;45637;-63
2023/08/17 09:16:23;;;;;;;;;14.25;13.50;;;;;27.81;47.47;99188.13;5074275;28;45545;-63
2023/08/17 09:18:48;;;;;;;;;14.50;12.00;;;;;27.87;47.79;99176.59;5074396;28;45471;-64
2023/08/17 09:21:24;;;;;;;;;14.75;13.25;;;;;27.91;47.57;99172.53;5072848;28;45468;-64
2023/08/17 09:23:56;;;;;;;;;14.25;12.50;;;;;27.94;47.56;99171.34;5074141;28;45375;-64
2023/08/17 09:26:23;;;;;;;;;10.75;10.75;;;;;27.95;46.97;99164.91;5074336;28;45451;-64
2023/08/17 09:28:49;;;;;;;;;16.50;15.25;;;;;27.96;46.51;99158.47;5074197;28;46414;-65
2023/08/17 09:31:14;;;;;;;;;17.50;13.50;;;;;28.00;46.23;99165.22;5072799;28;45461;-66
2023/08/17 09:33:39;;;;;;;;;12.75;12.75;;;;;28.01;46.01;99156.94;5072736;28;46141;-63
2023/08/17 09:36:05;;;;;;;;;13.25;13.00;;;;;28.04;45.79;99153.88;5074167;28;45343;-63
2023/08/17 09:38:30;;;;;;;;;13.25;13.00;;;;;28.11;45.66;99159.47;5074432;28;45426;-65
2023/08/17 09:40:57;;;;;;;;;12.50;12.00;;;;;28.18;45.43;99160.47;5074314;28;45430;-63
2023/08/17 09:43:23;;;;;;;;;15.50;12.75;;;;;28.24;45.81;99151.69;5074383;28;45380;-64
2023/08/17 09:45:49;;;;;;;;;13.00;12.25;;;;;28.32;45.56;99148.13;5072094;28;45480;-64
2023/08/17 09:48:19;;;;;;;;;13.25;13.25;;;;;28.37;45.34;99130.28;5073805;28;45341;-65
2023/08/17 09:50:46;;;;;;;;;12.80;12.20;;;;;28.44;45.13;99141.28;5074214;28;45341;-64
2023/08/17 09:53:18;;;;;;;;;15.00;13.50;;;;;28.52;44.50;99137.69;5073995;28;45325;-64
2023/08/17 09:55:45;;;;;;;;;10.75;9.25;;;;;28.58;43.72;99129.69;5073597;28;45535;-64
2023/08/17 09:58:14;;;;;;;;;14.00;13.00;;;;;28.65;43.54;99135.28;5073028;27;46086;-64
2023/08/17 10:00:45;;;;;;;;;11.40;9.60;;;;;28.71;44.05;99126.41;5074012;28;45300;-64
2023/08/17 10:03:13;;;;;;;;;13.75;11.50;;;;;28.78;43.56;99125.53;5073778;27;45394;-65
2023/08/17 10:05:40;;;;;;;;;14.00;11.25;;;;;28.86;43.56;99121.94;5074206;28;45604;-64
2023/08/17 10:08:08;;;;;;;;;10.50;10.00;;;;;28.94;43.50;99113.78;5072069;28;45807;-64
2023/08/17 10:10:38;;;;;;;;;17.40;14.80;;;;;29.03;43.11;99109.13;5073814;28;45482;-64
2023/08/17 10:13:34;;;;;;;;;10.25;9.75;;;;;29.12;42.84;99108.06;5073868;28;45420;-65
2023/08/17 10:16:08;;;;;;;;;13.00;12.00;;;;;29.19;42.55;99095.44;5073386;27;45473;-64
2023/08/17 10:19:06;;;;;;;;;13.50;13.50;;;;;29.30;42.79;99092.31;5073768;28;46184;-63
2023/08/17 10:21:46;;;;;;;;;12.60;11.00;;;;;29.40;42.15;99090.22;5073139;28;45474;-63
2023/08/17 10:24:13;;;;;;;;;14.00;10.00;;;;;29.47;42.19;99082.19;5073378;28;45368;-65
2023/08/17 10:26:39;;;;;;;;;11.00;10.50;;;;;29.54;42.47;99080.41;5073101;28;45306;-63
2023/08/17 10:29:06;;;;;;;;;12.25;12.25;;;;;29.62;41.93;99082.25;5073636;28;45346;-63
2023/08/17 10:31:34;;;;;;;;;13.40;10.40;;;;;29.70;41.80;99079.44;5071536;28;45461;-63
2023/08/17 10:34:01;;;;;;;;;9.00;9.00;;;;;29.78;41.35;99074.78;5073611;28;45371;-64
2023/08/17 10:36:27;;;;;;;;;8.50;8.00;;;;;29.86;41.27;99071.94;5073302;28;45488;-64
2023/08/17 10:39:18;;;;;;;;;9.00;9.00;;;;;29.96;40.43;99068.97;5073490;28;45369;-64
2023/08/17 10:41:48;;;;;;;;;9.20;9.20;;;;;30.04;40.65;99059.91;5073660;27;45370;-65
2023/08/17 10:44:14;;;;;;;;;9.60;9.00;;;;;30.11;39.88;99055.41;5073471;28;45361;-65
2023/08/17 10:46:40;;;;;;;;;7.75;7.00;;;;;30.20;39.07;99048.84;5072981;28;45521;-63
2023/08/17 10:49:23;;;;;;;;;12.75;11.75;;;;;30.27;39.59;99044.34;5073234;28;46310;-63
2023/08/17 10:52:07;;;;;;;;;12.00;8.20;;;;;30.35;39.52;99040.66;5072142;28;45336;-64
2023/08/17 10:54:39;;;;;;;;;12.00;8.00;;;;;30.41;39.12;99035.31;5073411;28;45444;-64
2023/08/17 10:57:24;;;;;;;;;11.25;9.50;;;;;30.52;38.70;99033.97;5072944;28;45769;-63
2023/08/17 11:00:07;;;;;;;;;10.50;8.75;;;;;30.61;39.37;99029.28;5073371;28;45559;-65
2023/08/17 11:02:33;;;;;;;;;9.00;8.00;;;;;30.68;38.73;99025.59;5071405;28;45559;-64
2023/08/17 11:04:58;;;;;;;;;9.25;9.00;;;;;30.76;38.55;99020.06;5073321;28;45437;-64
2023/08/17 11:07:25;;;;;;;;;8.00;8.00;;;;;30.87;37.97;99018.69;5072935;28;45606;-65
2023/08/17 11:09:53;;;;;;;;;7.60;7.20;;;;;30.96;38.18;99013.97;5072988;28;45573;-63
2023/08/17 11:12:27;;;;;;;;;10.00;9.40;;;;;31.07;37.29;99013.44;5072877;28;45368;-64
2023/08/17 11:14:52;;;;;;;;;6.20;6.20;;;;;31.17;36.33;99005.84;5072773;28;45523;-65
2023/08/17 11:17:21;;;;;;;;;8.00;7.50;;;;;31.27;36.30;99006.34;5072035;28;45539;-64
2023/08/17 11:19:47;;;;;;;;;9.75;8.00;;;;;31.37;36.25;98995.91;5072558;28;46149;-64
2023/08/17 11:22:12;;;;;;;;;6.00;5.25;;;;;31.45;35.66;98995.78;5072460;28;45405;-64